HVN007 VVDN-VVTS
Flight info
| Callsign | HVN007 |
|---|---|
| Flight time | 1h 3m |
| Altitude | 36000 |
| Route | SADIN1A SADIN Q1 DOVIN DALAP2J |
| Aircraft | A20N/M-SDE2E3FGHIRWXY/LB1 |
Departure
| Time | 2026-04-26 14:39 |
|---|---|
| Airport | Da Nang International Airport (VVDN) |
Arrival
| Time | 2026-04-26 15:42 |
|---|---|
| Airport | Tan Son Nhat International Airport (VVTS) |
| Time | Latitude | Longitude | Altitude | Speed | Heading |
|---|---|---|---|---|---|
| 2026-04-26 14:24 | 16.05302 | 108.20203 | 24 ft | 0 kts | 82° |
| 2026-04-26 14:33 | 16.05300 | 108.20192 | 35 ft | 3 kts | 82° |
| 2026-04-26 14:34 | 16.05298 | 108.20173 | 35 ft | 3 kts | 82° |
| 2026-04-26 14:34 | 16.05295 | 108.20154 | 32 ft | 3 kts | 82° |
| 2026-04-26 14:34 | 16.05292 | 108.20135 | 32 ft | 3 kts | 82° |
| 2026-04-26 14:34 | 16.05290 | 108.20116 | 33 ft | 3 kts | 82° |
| 2026-04-26 14:35 | 16.05287 | 108.20097 | 34 ft | 3 kts | 82° |
| 2026-04-26 14:35 | 16.05282 | 108.20079 | 33 ft | 3 kts | 49° |
| 2026-04-26 14:35 | 16.05267 | 108.20068 | 34 ft | 3 kts | 10° |
| 2026-04-26 14:35 | 16.05259 | 108.20067 | 35 ft | 0 kts | 352° |
| 2026-04-26 14:36 | 16.05269 | 108.20063 | 35 ft | 4 kts | 338° |
| 2026-04-26 14:36 | 16.05297 | 108.20051 | 35 ft | 4 kts | 337° |
| 2026-04-26 14:36 | 16.05331 | 108.20041 | 35 ft | 7 kts | 346° |
| 2026-04-26 14:37 | 16.05397 | 108.20034 | 35 ft | 12 kts | 352° |
| 2026-04-26 14:37 | 16.05497 | 108.20018 | 35 ft | 16 kts | 352° |
| 2026-04-26 14:37 | 16.05604 | 108.20003 | 34 ft | 16 kts | 352° |
| 2026-04-26 14:37 | 16.05711 | 108.19986 | 34 ft | 15 kts | 351° |
| 2026-04-26 14:38 | 16.05755 | 108.19919 | 34 ft | 12 kts | 261° |
| 2026-04-26 14:38 | 16.05727 | 108.19844 | 33 ft | 10 kts | 210° |
| 2026-04-26 14:38 | 16.05672 | 108.19851 | 32 ft | 8 kts | 166° |
| 2026-04-26 14:38 | 16.05502 | 108.19875 | 34 ft | 54 kts | 172° |
| 2026-04-26 14:39 | 16.04915 | 108.19960 | 36 ft | 115 kts | 173° |
| 2026-04-26 14:39 | 16.03957 | 108.20095 | 70 ft | 159 kts | 172° |
| 2026-04-26 14:39 | 16.02816 | 108.20250 | 433 ft | 168 kts | 173° |
| 2026-04-26 14:39 | 16.01701 | 108.20398 | 1130 ft | 157 kts | 173° |
| 2026-04-26 14:40 | 16.00638 | 108.20535 | 1775 ft | 153 kts | 173° |
| 2026-04-26 14:40 | 15.99521 | 108.20613 | 2260 ft | 171 kts | 178° |
| 2026-04-26 14:40 | 15.98255 | 108.20595 | 2594 ft | 194 kts | 181° |
| 2026-04-26 14:40 | 15.96830 | 108.20522 | 2887 ft | 216 kts | 182° |
| 2026-04-26 14:41 | 15.95239 | 108.20427 | 3143 ft | 240 kts | 182° |
| 2026-04-26 14:41 | 15.93508 | 108.20334 | 3527 ft | 256 kts | 182° |
| 2026-04-26 14:41 | 15.91712 | 108.20253 | 4134 ft | 261 kts | 182° |
| 2026-04-26 14:41 | 15.89881 | 108.20184 | 4779 ft | 265 kts | 181° |
| 2026-04-26 14:42 | 15.88026 | 108.20122 | 5402 ft | 268 kts | 181° |
| 2026-04-26 14:42 | 15.86148 | 108.20065 | 6025 ft | 272 kts | 181° |
| 2026-04-26 14:42 | 15.84261 | 108.20010 | 6590 ft | 277 kts | 182° |
| 2026-04-26 14:42 | 15.82321 | 108.19954 | 7200 ft | 280 kts | 182° |
| 2026-04-26 14:43 | 15.80374 | 108.19897 | 7826 ft | 282 kts | 182° |
| 2026-04-26 14:43 | 15.78397 | 108.19838 | 8455 ft | 285 kts | 182° |
| 2026-04-26 14:43 | 15.76401 | 108.19777 | 9082 ft | 288 kts | 182° |
| 2026-04-26 14:43 | 15.74384 | 108.19716 | 9701 ft | 291 kts | 183° |
| 2026-04-26 14:44 | 15.72351 | 108.19654 | 10237 ft | 296 kts | 183° |
| 2026-04-26 14:44 | 15.70262 | 108.19590 | 10519 ft | 310 kts | 183° |
| 2026-04-26 14:44 | 15.68051 | 108.19522 | 10769 ft | 325 kts | 183° |
| 2026-04-26 14:44 | 15.65756 | 108.19451 | 11085 ft | 335 kts | 183° |
| 2026-04-26 14:45 | 15.63400 | 108.19381 | 11523 ft | 340 kts | 183° |
| 2026-04-26 14:45 | 15.61797 | 108.19333 | 11853 ft | 342 kts | 183° |
| 2026-04-26 14:45 | 15.58619 | 108.19239 | 12516 ft | 346 kts | 183° |
| 2026-04-26 14:45 | 15.56206 | 108.19167 | 13026 ft | 349 kts | 183° |
| 2026-04-26 14:46 | 15.53867 | 108.19097 | 13511 ft | 352 kts | 184° |
| 2026-04-26 14:46 | 15.51433 | 108.19024 | 13983 ft | 355 kts | 184° |
| 2026-04-26 14:46 | 15.48944 | 108.18949 | 14453 ft | 357 kts | 184° |
| 2026-04-26 14:46 | 15.46433 | 108.18874 | 14928 ft | 360 kts | 184° |
| 2026-04-26 14:47 | 15.43948 | 108.18799 | 15405 ft | 362 kts | 184° |
| 2026-04-26 14:47 | 15.41401 | 108.18723 | 15875 ft | 365 kts | 183° |
| 2026-04-26 14:47 | 15.38855 | 108.18660 | 16343 ft | 368 kts | 183° |
| 2026-04-26 14:47 | 15.36292 | 108.18602 | 16808 ft | 371 kts | 183° |
| 2026-04-26 14:48 | 15.33689 | 108.18538 | 17257 ft | 374 kts | 183° |
| 2026-04-26 14:48 | 15.31109 | 108.18467 | 17682 ft | 376 kts | 184° |
| 2026-04-26 14:48 | 15.28470 | 108.18388 | 18094 ft | 379 kts | 184° |
| 2026-04-26 14:48 | 15.25848 | 108.18304 | 18469 ft | 381 kts | 184° |
| 2026-04-26 14:49 | 15.23173 | 108.18217 | 18814 ft | 384 kts | 184° |
| 2026-04-26 14:49 | 15.20486 | 108.18129 | 19150 ft | 386 kts | 184° |
| 2026-04-26 14:49 | 15.17784 | 108.18041 | 19499 ft | 388 kts | 184° |
| 2026-04-26 14:49 | 15.15098 | 108.17953 | 19815 ft | 391 kts | 184° |
| 2026-04-26 14:50 | 15.12367 | 108.17864 | 20161 ft | 393 kts | 184° |
| 2026-04-26 14:50 | 15.09624 | 108.17774 | 20501 ft | 395 kts | 184° |
| 2026-04-26 14:50 | 15.06893 | 108.17692 | 20834 ft | 397 kts | 183° |
| 2026-04-26 14:50 | 15.04107 | 108.17623 | 21183 ft | 400 kts | 183° |
| 2026-04-26 14:51 | 15.01315 | 108.17561 | 21521 ft | 402 kts | 183° |
| 2026-04-26 14:51 | 14.98494 | 108.17502 | 21861 ft | 404 kts | 183° |
| 2026-04-26 14:51 | 14.95684 | 108.17443 | 22195 ft | 407 kts | 183° |
| 2026-04-26 14:51 | 14.92877 | 108.17384 | 22540 ft | 409 kts | 183° |
| 2026-04-26 14:52 | 14.89994 | 108.17322 | 22878 ft | 411 kts | 182° |
| 2026-04-26 14:52 | 14.87119 | 108.17260 | 23213 ft | 413 kts | 183° |
| 2026-04-26 14:52 | 14.84264 | 108.17197 | 23545 ft | 416 kts | 183° |
| 2026-04-26 14:52 | 14.81340 | 108.17133 | 23829 ft | 418 kts | 183° |
| 2026-04-26 14:53 | 14.78458 | 108.17069 | 24087 ft | 420 kts | 183° |
| 2026-04-26 14:53 | 14.75509 | 108.17004 | 24375 ft | 423 kts | 183° |
| 2026-04-26 14:53 | 14.72573 | 108.16939 | 24665 ft | 425 kts | 183° |
| 2026-04-26 14:53 | 14.69598 | 108.16874 | 24967 ft | 427 kts | 183° |
| 2026-04-26 14:54 | 14.66603 | 108.16808 | 25267 ft | 429 kts | 183° |
| 2026-04-26 14:54 | 14.63639 | 108.16742 | 25554 ft | 431 kts | 183° |
| 2026-04-26 14:54 | 14.60621 | 108.16676 | 25856 ft | 433 kts | 183° |
| 2026-04-26 14:54 | 14.57613 | 108.16610 | 26138 ft | 436 kts | 183° |
| 2026-04-26 14:55 | 14.54566 | 108.16543 | 26429 ft | 438 kts | 183° |
| 2026-04-26 14:55 | 14.51503 | 108.16476 | 26710 ft | 440 kts | 183° |
| 2026-04-26 14:55 | 14.48459 | 108.16409 | 26973 ft | 442 kts | 183° |
| 2026-04-26 14:55 | 14.45365 | 108.16341 | 27253 ft | 444 kts | 183° |
| 2026-04-26 14:56 | 14.42257 | 108.16272 | 27518 ft | 446 kts | 183° |
| 2026-04-26 14:56 | 14.39184 | 108.16205 | 27784 ft | 448 kts | 183° |
| 2026-04-26 14:56 | 14.36042 | 108.16135 | 28057 ft | 450 kts | 183° |
| 2026-04-26 14:56 | 14.32882 | 108.16066 | 28303 ft | 452 kts | 183° |
| 2026-04-26 14:57 | 14.29732 | 108.15996 | 28551 ft | 454 kts | 183° |
| 2026-04-26 14:57 | 14.26585 | 108.15928 | 28810 ft | 456 kts | 182° |
| 2026-04-26 14:57 | 14.23487 | 108.15861 | 29039 ft | 458 kts | 183° |
| 2026-04-26 14:57 | 14.20317 | 108.15793 | 29287 ft | 460 kts | 182° |
| 2026-04-26 14:58 | 14.17084 | 108.15724 | 29535 ft | 462 kts | 182° |
| 2026-04-26 14:58 | 14.13866 | 108.15656 | 29794 ft | 464 kts | 182° |
| 2026-04-26 14:58 | 14.10618 | 108.15586 | 30017 ft | 466 kts | 182° |
| 2026-04-26 14:58 | 14.07345 | 108.15516 | 30231 ft | 468 kts | 182° |
| 2026-04-26 14:59 | 14.04116 | 108.15448 | 30452 ft | 470 kts | 182° |
| 2026-04-26 14:59 | 14.00836 | 108.15378 | 30678 ft | 471 kts | 182° |
| 2026-04-26 14:59 | 13.97543 | 108.15307 | 30896 ft | 472 kts | 182° |
| 2026-04-26 14:59 | 13.95361 | 108.15260 | 31043 ft | 473 kts | 182° |
| 2026-04-26 15:00 | 13.90990 | 108.15164 | 31434 ft | 471 kts | 182° |
| 2026-04-26 15:00 | 13.87684 | 108.15091 | 31765 ft | 470 kts | 182° |
| 2026-04-26 15:00 | 13.84426 | 108.15019 | 32060 ft | 469 kts | 182° |
| 2026-04-26 15:00 | 13.81187 | 108.14948 | 32364 ft | 467 kts | 182° |
| 2026-04-26 15:01 | 13.77911 | 108.14876 | 32651 ft | 466 kts | 182° |
| 2026-04-26 15:01 | 13.74677 | 108.14805 | 32933 ft | 466 kts | 182° |
| 2026-04-26 15:01 | 13.71462 | 108.14734 | 33217 ft | 465 kts | 182° |
| 2026-04-26 15:01 | 13.68212 | 108.14663 | 33496 ft | 464 kts | 182° |
| 2026-04-26 15:02 | 13.65003 | 108.14593 | 33749 ft | 463 kts | 183° |
| 2026-04-26 15:02 | 13.61758 | 108.14522 | 33992 ft | 463 kts | 182° |
| 2026-04-26 15:02 | 13.58547 | 108.14451 | 34202 ft | 463 kts | 183° |
| 2026-04-26 15:02 | 13.55321 | 108.14381 | 34413 ft | 463 kts | 183° |
| 2026-04-26 15:03 | 13.52112 | 108.14311 | 34616 ft | 463 kts | 183° |
| 2026-04-26 15:03 | 13.48888 | 108.14240 | 34811 ft | 463 kts | 183° |
| 2026-04-26 15:03 | 13.45688 | 108.14170 | 35014 ft | 462 kts | 183° |
| 2026-04-26 15:03 | 13.42477 | 108.14101 | 35218 ft | 462 kts | 183° |
| 2026-04-26 15:04 | 13.39241 | 108.14030 | 35435 ft | 461 kts | 183° |
| 2026-04-26 15:04 | 13.36032 | 108.13961 | 35636 ft | 461 kts | 183° |
| 2026-04-26 15:04 | 13.32858 | 108.13890 | 35844 ft | 460 kts | 183° |
| 2026-04-26 15:05 | 13.26459 | 108.13739 | 35937 ft | 457 kts | 183° |
| 2026-04-26 15:05 | 13.20129 | 108.13585 | 35939 ft | 455 kts | 184° |
| 2026-04-26 15:06 | 13.13770 | 108.13430 | 35943 ft | 453 kts | 184° |
| 2026-04-26 15:06 | 13.07510 | 108.13280 | 35942 ft | 451 kts | 184° |
| 2026-04-26 15:07 | 12.98107 | 108.13053 | 35945 ft | 450 kts | 184° |
| 2026-04-26 15:07 | 12.92884 | 108.12928 | 35945 ft | 450 kts | 184° |
| 2026-04-26 15:08 | 12.86622 | 108.12778 | 35945 ft | 450 kts | 184° |
| 2026-04-26 15:08 | 12.80382 | 108.12629 | 35946 ft | 450 kts | 184° |
| 2026-04-26 15:09 | 12.73084 | 108.12454 | 35947 ft | 449 kts | 184° |
| 2026-04-26 15:09 | 12.67855 | 108.12329 | 35948 ft | 449 kts | 184° |
| 2026-04-26 15:10 | 12.62617 | 108.12218 | 35947 ft | 449 kts | 183° |
| 2026-04-26 15:10 | 12.55335 | 108.12073 | 35950 ft | 449 kts | 183° |
| 2026-04-26 15:11 | 12.49101 | 108.11949 | 35952 ft | 448 kts | 183° |
| 2026-04-26 15:11 | 12.42871 | 108.11825 | 35956 ft | 448 kts | 183° |
| 2026-04-26 15:12 | 12.36648 | 108.11701 | 35961 ft | 448 kts | 183° |
| 2026-04-26 15:12 | 12.30377 | 108.11576 | 35961 ft | 448 kts | 183° |
| 2026-04-26 15:13 | 12.24173 | 108.11452 | 35968 ft | 449 kts | 182° |
| 2026-04-26 15:13 | 12.17891 | 108.11326 | 35953 ft | 454 kts | 182° |
| 2026-04-26 15:14 | 12.14728 | 108.11263 | 35736 ft | 454 kts | 182° |
| 2026-04-26 15:14 | 12.11548 | 108.11200 | 35496 ft | 455 kts | 182° |
| 2026-04-26 15:14 | 12.08402 | 108.11138 | 35278 ft | 455 kts | 182° |
| 2026-04-26 15:14 | 12.05227 | 108.11075 | 35040 ft | 456 kts | 182° |
| 2026-04-26 15:15 | 12.02036 | 108.11011 | 34816 ft | 456 kts | 182° |
| 2026-04-26 15:15 | 11.98887 | 108.10949 | 34591 ft | 457 kts | 182° |
| 2026-04-26 15:15 | 11.95700 | 108.10879 | 34297 ft | 456 kts | 184° |
| 2026-04-26 15:15 | 11.92557 | 108.10415 | 33738 ft | 453 kts | 198° |
| 2026-04-26 15:16 | 11.89695 | 108.09143 | 32985 ft | 452 kts | 214° |
| 2026-04-26 15:16 | 11.87134 | 108.07270 | 32425 ft | 449 kts | 219° |
| 2026-04-26 15:16 | 11.84681 | 108.05297 | 31881 ft | 446 kts | 219° |
| 2026-04-26 15:16 | 11.82272 | 108.03340 | 31316 ft | 444 kts | 219° |
| 2026-04-26 15:17 | 11.79870 | 108.01398 | 30782 ft | 443 kts | 219° |
| 2026-04-26 15:17 | 11.78258 | 108.00100 | 30402 ft | 443 kts | 219° |
| 2026-04-26 15:17 | 11.75028 | 107.97510 | 29572 ft | 442 kts | 219° |
| 2026-04-26 15:17 | 11.72612 | 107.95578 | 28968 ft | 440 kts | 218° |
| 2026-04-26 15:18 | 11.70189 | 107.93642 | 28393 ft | 438 kts | 218° |
| 2026-04-26 15:18 | 11.67806 | 107.91740 | 27808 ft | 436 kts | 218° |
| 2026-04-26 15:18 | 11.65414 | 107.89831 | 27233 ft | 434 kts | 218° |
| 2026-04-26 15:18 | 11.63053 | 107.87949 | 26650 ft | 432 kts | 218° |
| 2026-04-26 15:19 | 11.60684 | 107.86060 | 26057 ft | 431 kts | 218° |
| 2026-04-26 15:19 | 11.58301 | 107.84161 | 25460 ft | 430 kts | 218° |
| 2026-04-26 15:19 | 11.55967 | 107.82301 | 24927 ft | 428 kts | 218° |
| 2026-04-26 15:19 | 11.53643 | 107.80450 | 24670 ft | 418 kts | 218° |
| 2026-04-26 15:20 | 11.51379 | 107.78647 | 24172 ft | 415 kts | 218° |
| 2026-04-26 15:20 | 11.49099 | 107.76830 | 23680 ft | 412 kts | 218° |
| 2026-04-26 15:20 | 11.46856 | 107.75044 | 23123 ft | 410 kts | 218° |
| 2026-04-26 15:20 | 11.44600 | 107.73249 | 22553 ft | 407 kts | 218° |
| 2026-04-26 15:21 | 11.42379 | 107.71481 | 22025 ft | 403 kts | 218° |
| 2026-04-26 15:21 | 11.40170 | 107.69724 | 21488 ft | 399 kts | 218° |
| 2026-04-26 15:21 | 11.38006 | 107.68002 | 20988 ft | 396 kts | 218° |
| 2026-04-26 15:21 | 11.35834 | 107.66275 | 20451 ft | 392 kts | 218° |
| 2026-04-26 15:22 | 11.34164 | 107.64946 | 20058 ft | 390 kts | 218° |
| 2026-04-26 15:22 | 11.32030 | 107.63250 | 19556 ft | 387 kts | 218° |
| 2026-04-26 15:22 | 11.29912 | 107.61566 | 19062 ft | 384 kts | 218° |
| 2026-04-26 15:22 | 11.27826 | 107.59909 | 18572 ft | 381 kts | 218° |
| 2026-04-26 15:23 | 11.25761 | 107.58268 | 18070 ft | 378 kts | 218° |
| 2026-04-26 15:23 | 11.23695 | 107.56627 | 17498 ft | 375 kts | 218° |
| 2026-04-26 15:23 | 11.21634 | 107.54990 | 16959 ft | 372 kts | 218° |
| 2026-04-26 15:23 | 11.19612 | 107.53383 | 16427 ft | 369 kts | 218° |
| 2026-04-26 15:24 | 11.17598 | 107.51785 | 15893 ft | 366 kts | 218° |
| 2026-04-26 15:24 | 11.15597 | 107.50196 | 15368 ft | 363 kts | 218° |
| 2026-04-26 15:24 | 11.13628 | 107.48634 | 14851 ft | 361 kts | 218° |
| 2026-04-26 15:24 | 11.11639 | 107.47056 | 14337 ft | 358 kts | 218° |
| 2026-04-26 15:25 | 11.09702 | 107.45519 | 13840 ft | 356 kts | 218° |
| 2026-04-26 15:25 | 11.08399 | 107.44485 | 13479 ft | 354 kts | 218° |
| 2026-04-26 15:25 | 11.05799 | 107.42422 | 12714 ft | 352 kts | 218° |
| 2026-04-26 15:25 | 11.03915 | 107.40928 | 12458 ft | 340 kts | 218° |
| 2026-04-26 15:26 | 11.02166 | 107.39355 | 12248 ft | 329 kts | 230° |
| 2026-04-26 15:26 | 11.01125 | 107.37427 | 12033 ft | 319 kts | 252° |
| 2026-04-26 15:26 | 11.00562 | 107.35249 | 11656 ft | 315 kts | 257° |
| 2026-04-26 15:26 | 11.00115 | 107.33071 | 11183 ft | 315 kts | 258° |
| 2026-04-26 15:27 | 10.99678 | 107.30890 | 10751 ft | 314 kts | 258° |
| 2026-04-26 15:27 | 10.99240 | 107.28741 | 10346 ft | 312 kts | 258° |
| 2026-04-26 15:27 | 10.98842 | 107.26568 | 9916 ft | 311 kts | 265° |
| 2026-04-26 15:27 | 10.99046 | 107.24422 | 9452 ft | 308 kts | 290° |
| 2026-04-26 15:28 | 11.00221 | 107.22626 | 9070 ft | 300 kts | 321° |
| 2026-04-26 15:28 | 11.01979 | 107.21582 | 8979 ft | 291 kts | 338° |
| 2026-04-26 15:28 | 11.03847 | 107.20834 | 8975 ft | 293 kts | 340° |
| 2026-04-26 15:28 | 11.05765 | 107.20116 | 8975 ft | 294 kts | 341° |
| 2026-04-26 15:29 | 11.07630 | 107.19277 | 8972 ft | 294 kts | 330° |
| 2026-04-26 15:29 | 11.09329 | 107.18091 | 8976 ft | 295 kts | 324° |
| 2026-04-26 15:29 | 11.12570 | 107.15532 | 8975 ft | 295 kts | 322° |
| 2026-04-26 15:30 | 11.15661 | 107.12798 | 8972 ft | 295 kts | 310° |
| 2026-04-26 15:30 | 11.16906 | 107.11122 | 8971 ft | 296 kts | 306° |
| 2026-04-26 15:30 | 11.18086 | 107.09410 | 8971 ft | 296 kts | 305° |
| 2026-04-26 15:31 | 11.19255 | 107.07699 | 8975 ft | 296 kts | 305° |
| 2026-04-26 15:31 | 11.21336 | 107.04118 | 8974 ft | 296 kts | 291° |
| 2026-04-26 15:31 | 11.21990 | 107.02219 | 8975 ft | 297 kts | 288° |
| 2026-04-26 15:32 | 11.22715 | 106.98812 | 8767 ft | 297 kts | 266° |
| 2026-04-26 15:32 | 11.21766 | 106.96260 | 8320 ft | 292 kts | 229° |
| 2026-04-26 15:32 | 11.20158 | 106.95020 | 8026 ft | 289 kts | 201° |
| 2026-04-26 15:33 | 11.18246 | 106.94486 | 7733 ft | 288 kts | 190° |
| 2026-04-26 15:33 | 11.16283 | 106.94157 | 7498 ft | 281 kts | 188° |
| 2026-04-26 15:33 | 11.14393 | 106.93866 | 7275 ft | 273 kts | 188° |
| 2026-04-26 15:33 | 11.12526 | 106.93573 | 7003 ft | 268 kts | 188° |
| 2026-04-26 15:34 | 11.10696 | 106.93278 | 6719 ft | 263 kts | 188° |
| 2026-04-26 15:34 | 11.08914 | 106.92985 | 6462 ft | 260 kts | 188° |
| 2026-04-26 15:34 | 11.07129 | 106.92688 | 6189 ft | 260 kts | 188° |
| 2026-04-26 15:34 | 11.05353 | 106.92391 | 5923 ft | 259 kts | 188° |
| 2026-04-26 15:35 | 11.03575 | 106.92093 | 5653 ft | 258 kts | 188° |
| 2026-04-26 15:35 | 11.01814 | 106.91797 | 5394 ft | 257 kts | 188° |
| 2026-04-26 15:35 | 11.00050 | 106.91499 | 5132 ft | 256 kts | 188° |
| 2026-04-26 15:35 | 10.98301 | 106.91205 | 4859 ft | 253 kts | 188° |
| 2026-04-26 15:36 | 10.96569 | 106.90913 | 4615 ft | 253 kts | 188° |
| 2026-04-26 15:36 | 10.94848 | 106.90622 | 4357 ft | 253 kts | 188° |
| 2026-04-26 15:36 | 10.93098 | 106.90313 | 4065 ft | 254 kts | 192° |
| 2026-04-26 15:36 | 10.91498 | 106.89595 | 3580 ft | 253 kts | 218° |
| 2026-04-26 15:37 | 10.90452 | 106.88183 | 3179 ft | 252 kts | 245° |
| 2026-04-26 15:37 | 10.89850 | 106.86577 | 2997 ft | 235 kts | 250° |
| 2026-04-26 15:37 | 10.89369 | 106.85075 | 2984 ft | 214 kts | 251° |
| 2026-04-26 15:37 | 10.88924 | 106.83674 | 2990 ft | 198 kts | 251° |
| 2026-04-26 15:38 | 10.88522 | 106.82426 | 2948 ft | 174 kts | 249° |
| 2026-04-26 15:38 | 10.88115 | 106.81325 | 2992 ft | 161 kts | 247° |
| 2026-04-26 15:38 | 10.87722 | 106.80286 | 2835 ft | 152 kts | 248° |
| 2026-04-26 15:38 | 10.87352 | 106.79294 | 2642 ft | 151 kts | 247° |
| 2026-04-26 15:39 | 10.86978 | 106.78297 | 2432 ft | 151 kts | 246° |
| 2026-04-26 15:39 | 10.86601 | 106.77291 | 2241 ft | 151 kts | 246° |
| 2026-04-26 15:39 | 10.86229 | 106.76300 | 2042 ft | 152 kts | 246° |
| 2026-04-26 15:39 | 10.85975 | 106.75623 | 1915 ft | 152 kts | 246° |
| 2026-04-26 15:40 | 10.85472 | 106.74285 | 1656 ft | 152 kts | 245° |
| 2026-04-26 15:40 | 10.85096 | 106.73282 | 1446 ft | 151 kts | 245° |
| 2026-04-26 15:40 | 10.84730 | 106.72306 | 1254 ft | 149 kts | 245° |
| 2026-04-26 15:40 | 10.84358 | 106.71336 | 1050 ft | 148 kts | 246° |
| 2026-04-26 15:41 | 10.83998 | 106.70364 | 875 ft | 146 kts | 248° |
| 2026-04-26 15:41 | 10.83645 | 106.69398 | 715 ft | 144 kts | 245° |
| 2026-04-26 15:41 | 10.83287 | 106.68463 | 524 ft | 142 kts | 247° |
| 2026-04-26 15:41 | 10.82985 | 106.67508 | 315 ft | 140 kts | 246° |
| 2026-04-26 15:42 | 10.82618 | 106.66599 | 148 ft | 139 kts | 242° |
| 2026-04-26 15:42 | 10.82259 | 106.65691 | 51 ft | 131 kts | 245° |
| 2026-04-26 15:42 | 10.81957 | 106.64932 | 38 ft | 93 kts | 250° |
| 2026-04-26 15:42 | 10.81797 | 106.64490 | 35 ft | 40 kts | 250° |
| 2026-04-26 15:43 | 10.81715 | 106.64281 | 34 ft | 31 kts | 248° |
| 2026-04-26 15:43 | 10.81637 | 106.64081 | 33 ft | 30 kts | 249° |
| 2026-04-26 15:43 | 10.81447 | 106.63736 | 31 ft | 25 kts | 192° |
| 2026-04-26 15:44 | 10.81307 | 106.63700 | 32 ft | 19 kts | 189° |
| 2026-04-26 15:44 | 10.81233 | 106.63689 | 32 ft | 0 kts | 189° |
| 2026-04-26 15:44 | 10.81230 | 106.63688 | 32 ft | 5 kts | 189° |
| 2026-04-26 15:45 | 10.81063 | 106.63720 | 32 ft | 12 kts | 159° |
| 2026-04-26 15:45 | 10.80989 | 106.63755 | 33 ft | 11 kts | 146° |
| 2026-04-26 15:46 | 10.80921 | 106.63868 | 33 ft | 9 kts | 102° |
| 2026-04-26 15:46 | 10.80927 | 106.63921 | 32 ft | 7 kts | 59° |
| 2026-04-26 15:46 | 10.80951 | 106.63964 | 33 ft | 7 kts | 62° |
| 2026-04-26 15:46 | 10.80958 | 106.63977 | 33 ft | 7 kts | 66° |
| 2026-04-26 15:47 | 10.80993 | 106.64073 | 33 ft | 9 kts | 70° |
| 2026-04-26 15:47 | 10.81034 | 106.64187 | 33 ft | 8 kts | 67° |
| 2026-04-26 15:47 | 10.81061 | 106.64254 | 33 ft | 13 kts | 68° |
| 2026-04-26 15:48 | 10.81093 | 106.64340 | 35 ft | 14 kts | 70° |
| 2026-04-26 15:48 | 10.81127 | 106.64432 | 35 ft | 14 kts | 69° |
| 2026-04-26 15:48 | 10.81151 | 106.64494 | 36 ft | 14 kts | 69° |
| 2026-04-26 15:48 | 10.81185 | 106.64580 | 36 ft | 13 kts | 69° |
| 2026-04-26 15:49 | 10.81218 | 106.64666 | 35 ft | 13 kts | 69° |
| 2026-04-26 15:49 | 10.81251 | 106.64754 | 37 ft | 14 kts | 69° |
| 2026-04-26 15:49 | 10.81285 | 106.64845 | 37 ft | 14 kts | 70° |
| 2026-04-26 15:49 | 10.81320 | 106.64938 | 38 ft | 14 kts | 69° |
| 2026-04-26 15:50 | 10.81355 | 106.65029 | 38 ft | 13 kts | 69° |
| 2026-04-26 15:50 | 10.81387 | 106.65114 | 38 ft | 13 kts | 69° |
| 2026-04-26 15:50 | 10.81417 | 106.65197 | 35 ft | 12 kts | 69° |
| 2026-04-26 15:50 | 10.81447 | 106.65272 | 39 ft | 11 kts | 69° |
| 2026-04-26 15:51 | 10.81474 | 106.65344 | 39 ft | 11 kts | 70° |
| 2026-04-26 15:51 | 10.81504 | 106.65424 | 39 ft | 15 kts | 67° |
| 2026-04-26 15:51 | 10.81545 | 106.65533 | 39 ft | 17 kts | 70° |
| 2026-04-26 15:51 | 10.81588 | 106.65649 | 40 ft | 18 kts | 69° |
| 2026-04-26 15:52 | 10.81634 | 106.65771 | 40 ft | 19 kts | 69° |
| 2026-04-26 15:52 | 10.81682 | 106.65899 | 41 ft | 20 kts | 68° |
| 2026-04-26 15:52 | 10.81730 | 106.66027 | 41 ft | 19 kts | 69° |
| 2026-04-26 15:52 | 10.81761 | 106.66106 | 42 ft | 18 kts | 69° |
| 2026-04-26 15:53 | 10.81780 | 106.66215 | 42 ft | 6 kts | 151° |
| 2026-04-26 15:53 | 10.81742 | 106.66232 | 42 ft | 6 kts | 161° |
| 2026-04-26 15:53 | 10.81704 | 106.66244 | 42 ft | 5 kts | 162° |
| 2026-04-26 15:53 | 10.81698 | 106.66246 | 42 ft | 0 kts | 162° |